Portada
METAR-TAF:

METAR-TAF

Aeroports :

Kerman, Iran

latitud: 30-15N, longitud: 056-58E, altitud: 1748 m

Observació

L'informe es va fer fa 39 minuts, a les 02:00 UTC
Vent 4 kt del Sud/Sud-Est
Temperatura 6°C
Humitat 52%
Pressió 1024 hPa
Visibilitat 10 km o més
sense núvols per sota de 1500 mi sense presència de cumulonimbus.

METAR: OIKK 230200Z 16004KT CAVOK 06/M03 Q1023 A3023

Hora: 06:09 (02:39 UTC)

Pronòstic

L'informe es va fer fa 3 hores i 39 minuts, a les 23:00 UTC
Pronòstic vàlid del 23 a les 00 UTC al 24 a les 06 UTC
Vent 8 kt del Oest/Sud-Oest
Visibilitat: 8000 m

TAF: OIKK 222300Z 2300/2406 24008KT 8000 NSC

Observacions i pronòstics meteorològics de més de 4000 aeroports (METAR i TAF).

Les estacions disponibles són els punts grocs i vermells al mapa.

Posi el ratolí al punt desitjat per veure el nom de l'estació.

Feu clic per veure les observacions i els pronòstics meteorològics.

Per canviar el mapa: feu clic els botons verds amb una creu de color negre per apropar; al botó verd amb un guió per allunyar la imatge; o en les fletxes verdes per a mapes adjacents.


METAR-TAF: